FMEE/RUN METAR and TAF weather

Enter ICAO airport designator
Station Type Date Time Source
FMEE METAR 2018/12/11 00:30 UTC NOAA

FMEE 110030Z AUTO 17007KT 9999 ///CB 24/18 Q1014 TEMPO 4500 SHRA


Station Type Date Time Source
FMEE Decoded METAR 2018/12/11 00:30 UTC NOAA

Saint-Denis / Gillot, Reunion (FMEE) 20-53S 055-31E 25M
Dec 10, 2018 - 07:30 PM EST / 2018.12.11 0030 UTC
Wind: from the S (170 degrees) at 8 MPH (7 KT):0
Visibility: greater than 7 mile(s):0
Weather: Cumulonimbus clouds observed
Temperature: 75 F (24 C)
Dew Point: 64 F (18 C)
Relative Humidity: 69%
Pressure (altimeter): 29.94 in. Hg (1014 hPa)
ob: FMEE 110030Z AUTO 17007KT 9999 ///CB 24/18 Q1014 TEMPO 4500 SHRA
cycle: 0

Station Type Date Time Source
FMEE TAF 2018/12/10 18:21 UTC NOAA

TAF FMEE 101700Z 1018/1124 12012KT 9999 SCT035 PROB30
TEMPO 1021/1102 4500 SHRA BKN015CB
BECMG 1104/1106 06012KT
BECMG 1116/1118 14012KT


Example: see airport list